Time;durP1;ratioP1;P1;durP2;ratioP2;P2;SDS_P1;SDS_P2;PMS_P1;PMS_P2;Temp;Humidity;BMP_temperature;BMP_pressure;BME280_temperature;BME280_humidity;BME280_pressure;Samples;Min_cycle;Max_cycle;Signal;HPM_P1;HPM_P2
2022/04/15 00:02:24;;;;;;;3.20;2.90;;;21.90;44.70;;;;;;5107614;27;47225;-22
2022/04/15 00:04:51;;;;;;;3.03;2.78;;;21.90;44.60;;;;;;5106800;27;48702;-13
2022/04/15 00:07:17;;;;;;;3.00;2.80;;;21.90;44.60;;;;;;5107443;27;46914;-13
2022/04/15 00:09:44;;;;;;;3.35;3.00;;;21.90;44.60;;;;;;5107138;27;46863;-13
2022/04/15 00:12:17;;;;;;;3.55;3.20;;;21.90;44.70;;;;;;5107293;27;46845;-13
2022/04/15 00:14:44;;;;;;;3.88;3.40;;;21.90;44.90;;;;;;5106896;27;46992;-22
2022/04/15 00:17:12;;;;;;;3.20;3.00;;;21.90;44.80;;;;;;5107252;27;46917;-22
2022/04/15 00:19:39;;;;;;;3.30;3.00;;;21.90;44.90;;;;;;5106972;27;46949;-13
2022/04/15 00:22:05;;;;;;;3.30;3.00;;;21.80;44.80;;;;;;5107342;27;46908;-13
2022/04/15 00:24:32;;;;;;;3.42;3.00;;;21.80;44.80;;;;;;5106221;27;47069;-22
2022/04/15 00:26:59;;;;;;;3.58;3.10;;;21.80;44.90;;;;;;5107195;27;47427;-14
2022/04/15 00:29:28;;;;;;;3.42;3.00;;;21.80;45.50;;;;;;5106724;27;46936;-22
2022/04/15 00:31:55;;;;;;;2.85;2.65;;;21.80;44.90;;;;;;5107172;27;46872;-22
2022/04/15 00:34:23;;;;;;;3.42;3.13;;;21.80;44.80;;;;;;5106381;27;47897;-13
2022/04/15 00:36:49;;;;;;;3.30;3.00;;;21.80;44.80;;;;;;5106609;27;47066;-14
2022/04/15 00:39:16;;;;;;;3.50;3.20;;;21.80;44.80;;;;;;5106682;27;47022;-13
2022/04/15 00:41:43;;;;;;;3.33;3.03;;;21.80;44.90;;;;;;5106988;27;46930;-22
2022/04/15 00:44:10;;;;;;;3.30;3.00;;;21.80;44.80;;;;;;5106319;27;49132;-22
2022/04/15 00:46:36;;;;;;;3.33;3.03;;;21.70;44.90;;;;;;5106785;27;46738;-13
2022/04/15 00:49:03;;;;;;;4.20;2.85;;;21.70;44.90;;;;;;5106601;27;47023;-13
2022/04/15 00:51:31;;;;;;;3.40;3.05;;;21.70;44.90;;;;;;5107015;27;46931;-13
2022/04/15 00:53:58;;;;;;;3.90;2.90;;;21.70;45.00;;;;;;5106107;27;47283;-14
2022/04/15 00:56:27;;;;;;;3.45;2.80;;;21.70;44.90;;;;;;5106170;27;46939;-14
2022/04/15 00:58:53;;;;;;;3.20;2.90;;;21.70;44.90;;;;;;5106308;27;46896;-13
2022/04/15 01:01:20;;;;;;;3.30;3.00;;;21.60;45.00;;;;;;5106850;27;47177;-13
2022/04/15 01:03:47;;;;;;;3.10;2.90;;;21.60;44.90;;;;;;5106315;27;48116;-13
2022/04/15 01:06:13;;;;;;;4.82;3.22;;;21.60;44.90;;;;;;5106461;27;46895;-22
2022/04/15 01:08:41;;;;;;;3.05;2.78;;;21.60;44.90;;;;;;5106172;27;46986;-22
2022/04/15 01:11:09;;;;;;;3.40;2.90;;;21.60;45.00;;;;;;5106283;27;47068;-13
2022/04/15 01:13:38;;;;;;;4.53;2.95;;;21.50;44.80;;;;;;5106051;27;48107;-13
2022/04/15 01:16:05;;;;;;;5.05;2.97;;;21.50;44.80;;;;;;5105844;27;47088;-22
2022/04/15 01:18:32;;;;;;;3.17;2.97;;;21.50;44.90;;;;;;5105954;27;46805;-22
2022/04/15 01:21:00;;;;;;;3.17;2.85;;;21.50;44.80;;;;;;5106496;27;47487;-13
2022/04/15 01:23:28;;;;;;;3.45;3.15;;;21.50;44.90;;;;;;5105972;27;47023;-14
2022/04/15 01:25:55;;;;;;;4.05;2.80;;;21.50;44.90;;;;;;5105994;27;47172;-13
2022/04/15 01:28:21;;;;;;;3.35;3.10;;;21.50;44.80;;;;;;5106023;27;46916;-22
2022/04/15 01:30:48;;;;;;;3.05;2.75;;;21.50;44.90;;;;;;5106141;27;46887;-22
2022/04/15 01:33:15;;;;;;;3.35;2.80;;;21.50;44.80;;;;;;5105699;27;47940;-21
2022/04/15 01:35:42;;;;;;;3.08;2.78;;;21.40;45.00;;;;;;5106058;27;47250;-22
2022/04/15 01:38:10;;;;;;;3.95;2.95;;;21.40;44.90;;;;;;5106125;27;46897;-22
2022/04/15 01:40:38;;;;;;;3.20;2.90;;;21.40;44.90;;;;;;5106248;27;47209;-22
2022/04/15 01:43:05;;;;;;;3.30;3.00;;;21.40;44.80;;;;;;5105649;27;46986;-13
2022/04/15 01:45:32;;;;;;;3.40;2.80;;;21.40;44.80;;;;;;5105898;27;47249;-13
2022/04/15 01:47:58;;;;;;;3.47;2.70;;;21.40;44.80;;;;;;5106035;27;46859;-22
2022/04/15 01:50:28;;;;;;;4.40;2.88;;;21.40;45.00;;;;;;5105602;27;46779;-22
2022/04/15 01:52:54;;;;;;;2.88;2.60;;;21.40;44.90;;;;;;5105406;27;48882;-22
2022/04/15 01:55:21;;;;;;;3.03;2.83;;;21.40;44.90;;;;;;5105557;27;46906;-22
2022/04/15 01:57:49;;;;;;;4.25;3.10;;;21.30;44.90;;;;;;5105861;27;46861;-22
2022/04/15 02:00:16;;;;;;;3.40;3.10;;;21.30;44.80;;;;;;5105749;27;47305;-22
2022/04/15 02:02:43;;;;;;;3.00;2.70;;;21.30;44.80;;;;;;5105337;27;49043;-13
2022/04/15 02:05:10;;;;;;;3.30;3.00;;;21.30;44.80;;;;;;5105499;27;47256;-22
2022/04/15 02:07:37;;;;;;;2.92;2.70;;;21.30;44.90;;;;;;5107532;27;47035;-22
2022/04/15 02:10:04;;;;;;;3.42;3.13;;;21.30;45.00;;;;;;5109321;27;47288;-22
2022/04/15 02:12:30;;;;;;;3.13;2.67;;;21.30;44.90;;;;;;5109166;27;48104;-14
2022/04/15 02:14:58;;;;;;;3.40;3.10;;;21.30;44.90;;;;;;5108784;27;46776;-20
2022/04/15 02:17:25;;;;;;;3.03;2.70;;;21.30;44.90;;;;;;5109123;27;46992;-13
2022/04/15 02:19:52;;;;;;;2.70;2.50;;;21.20;44.90;;;;;;5109297;27;46912;-13
2022/04/15 02:22:19;;;;;;;3.10;2.80;;;21.20;44.90;;;;;;5109205;27;48874;-14
2022/04/15 02:24:46;;;;;;;2.92;2.70;;;21.20;44.90;;;;;;5108624;27;47424;-13
2022/04/15 02:27:12;;;;;;;2.78;2.58;;;21.20;45.00;;;;;;5108998;27;46876;-14
2022/04/15 02:29:39;;;;;;;2.90;2.70;;;21.20;44.90;;;;;;5108874;27;46956;-14
2022/04/15 02:32:08;;;;;;;3.45;3.00;;;21.10;44.90;;;;;;5108532;27;48740;-14
2022/04/15 02:34:35;;;;;;;3.10;2.75;;;21.20;44.90;;;;;;5108355;27;46817;-13
2022/04/15 02:37:02;;;;;;;3.05;2.85;;;21.10;44.90;;;;;;5109022;27;46821;-14
2022/04/15 02:39:28;;;;;;;3.20;2.92;;;21.10;44.90;;;;;;5108934;27;46977;-13
2022/04/15 02:41:56;;;;;;;3.25;3.03;;;21.10;44.90;;;;;;5108632;27;49030;-22
2022/04/15 02:44:23;;;;;;;3.13;2.80;;;21.10;45.00;;;;;;5108311;27;47596;-12
2022/04/15 02:46:50;;;;;;;2.75;2.55;;;21.10;45.00;;;;;;5108692;27;46975;-22
2022/04/15 02:49:18;;;;;;;2.80;2.60;;;21.10;44.90;;;;;;5108527;27;46990;-22
2022/04/15 02:51:44;;;;;;;3.20;2.97;;;21.00;44.90;;;;;;5108484;27;46943;-13
2022/04/15 02:54:11;;;;;;;3.38;2.80;;;21.00;44.90;;;;;;5108024;27;46859;-12
2022/04/15 02:56:38;;;;;;;2.63;2.42;;;21.00;44.90;;;;;;5108196;27;46969;-13
2022/04/15 02:59:04;;;;;;;3.20;2.90;;;21.00;44.90;;;;;;5108509;27;46728;-12
2022/04/15 03:01:31;;;;;;;3.28;2.70;;;21.00;44.90;;;;;;5108072;27;47087;-22
2022/04/15 03:03:58;;;;;;;3.00;2.70;;;21.00;45.00;;;;;;5108198;27;46790;-13
2022/04/15 03:06:26;;;;;;;3.25;2.80;;;21.00;45.00;;;;;;5108351;27;46931;-22
2022/04/15 03:08:55;;;;;;;3.40;2.78;;;21.00;45.10;;;;;;5108457;27;47368;-22
2022/04/15 03:11:21;;;;;;;3.05;2.75;;;21.00;45.00;;;;;;5107843;27;49149;-13
2022/04/15 03:13:48;;;;;;;3.22;2.70;;;21.00;45.00;;;;;;5108046;27;47004;-22
2022/04/15 03:16:15;;;;;;;2.97;2.70;;;21.00;45.00;;;;;;5108202;27;46904;-22
2022/04/15 03:18:42;;;;;;;3.45;2.72;;;21.00;45.00;;;;;;5107757;27;47217;-13
2022/04/15 03:21:08;;;;;;;2.90;2.70;;;20.90;45.00;;;;;;5107825;27;48178;-22
2022/04/15 03:23:36;;;;;;;3.13;2.70;;;20.90;45.00;;;;;;5107647;27;47468;-22
2022/04/15 03:26:03;;;;;;;3.00;2.80;;;20.90;45.00;;;;;;5108223;27;46871;-22
2022/04/15 03:28:30;;;;;;;3.13;2.83;;;20.90;45.60;;;;;;5107861;27;46899;-13
2022/04/15 03:30:57;;;;;;;4.22;2.90;;;20.90;45.00;;;;;;5107955;27;48327;-13
2022/04/15 03:33:23;;;;;;;2.88;2.67;;;20.90;45.70;;;;;;5107634;27;46981;-13
2022/04/15 03:35:50;;;;;;;2.80;2.60;;;20.80;45.00;;;;;;5107658;27;46904;-13
2022/04/15 03:38:17;;;;;;;3.00;2.75;;;20.90;45.20;;;;;;5108211;27;47005;-22
2022/04/15 03:40:45;;;;;;;3.05;2.80;;;20.90;45.10;;;;;;5107475;27;47931;-22
2022/04/15 03:43:11;;;;;;;4.18;2.90;;;20.80;45.00;;;;;;5107445;27;47031;-22
2022/04/15 03:45:38;;;;;;;3.28;2.80;;;20.90;45.10;;;;;;5107356;27;47034;-22
2022/04/15 03:48:05;;;;;;;3.00;2.80;;;20.80;45.00;;;;;;5107880;27;46911;-14
2022/04/15 03:50:33;;;;;;;2.80;2.60;;;20.80;45.10;;;;;;5107347;27;46786;-13
2022/04/15 03:52:59;;;;;;;4.18;2.55;;;20.80;45.00;;;;;;5107310;27;46935;-22
2022/04/15 03:55:26;;;;;;;2.88;2.60;;;20.80;45.10;;;;;;5107460;27;46829;-22
2022/04/15 03:57:54;;;;;;;2.42;2.22;;;20.80;45.00;;;;;;5107777;27;47276;-22
2022/04/15 04:00:21;;;;;;;3.45;2.50;;;20.80;45.10;;;;;;5106894;27;47890;-22
2022/04/15 04:02:49;;;;;;;2.53;2.33;;;20.80;45.00;;;;;;5107199;27;47364;-22
2022/04/15 04:05:15;;;;;;;2.88;2.55;;;20.80;45.20;;;;;;5107014;27;47016;-13
2022/04/15 04:07:42;;;;;;;2.30;2.13;;;20.80;45.10;;;;;;5107305;27;46873;-22
2022/04/15 04:10:10;;;;;;;2.70;2.50;;;20.70;45.10;;;;;;5106849;27;49067;-22
2022/04/15 04:12:37;;;;;;;2.60;2.40;;;20.80;45.20;;;;;;5107533;27;46896;-13
2022/04/15 04:15:06;;;;;;;3.75;2.25;;;20.70;45.10;;;;;;5106883;27;46909;-12
2022/04/15 04:17:33;;;;;;;2.80;2.60;;;20.70;45.20;;;;;;5107383;27;47271;-22
2022/04/15 04:20:00;;;;;;;2.65;2.45;;;20.70;45.10;;;;;;5106875;27;48374;-21
2022/04/15 04:22:28;;;;;;;2.83;2.55;;;20.70;45.10;;;;;;5107155;27;46907;-13
2022/04/15 04:24:54;;;;;;;2.70;2.30;;;20.70;45.10;;;;;;5106233;27;46991;-22
2022/04/15 04:27:21;;;;;;;2.72;2.30;;;20.70;45.10;;;;;;5107409;27;46941;-22
2022/04/15 04:29:48;;;;;;;3.60;2.70;;;20.70;45.10;;;;;;5105605;27;47995;-22
2022/04/15 04:32:16;;;;;;;2.72;2.53;;;20.70;45.20;;;;;;5107207;27;47019;-13
2022/04/15 04:34:43;;;;;;;3.13;2.70;;;20.70;45.20;;;;;;5106777;27;46873;-13
2022/04/15 04:37:10;;;;;;;2.70;2.50;;;20.60;45.20;;;;;;5107018;27;47100;-22
2022/04/15 04:39:37;;;;;;;2.83;2.40;;;20.60;45.30;;;;;;5106530;27;47951;-12
2022/04/15 04:42:04;;;;;;;2.50;2.30;;;20.60;45.10;;;;;;5107066;27;46910;-13
2022/04/15 04:44:31;;;;;;;2.72;2.50;;;20.60;45.10;;;;;;5106639;27;46797;-12
2022/04/15 04:46:59;;;;;;;3.40;2.20;;;20.60;45.10;;;;;;5106770;27;47308;-13
2022/04/15 04:49:27;;;;;;;2.90;2.65;;;20.60;45.20;;;;;;5106177;27;47071;-22
2022/04/15 04:51:54;;;;;;;2.80;2.60;;;20.60;45.20;;;;;;5106670;27;46911;-13
2022/04/15 04:54:21;;;;;;;2.47;2.28;;;20.60;45.10;;;;;;5106182;27;46832;-13
2022/04/15 04:56:47;;;;;;;2.45;2.25;;;20.60;45.10;;;;;;5106950;27;46990;-22
2022/04/15 04:59:14;;;;;;;2.50;2.30;;;20.60;45.20;;;;;;5106024;27;48777;-22
2022/04/15 05:01:41;;;;;;;2.70;2.50;;;20.60;45.20;;;;;;5106630;27;47495;-22
2022/04/15 05:04:07;;;;;;;2.53;2.33;;;20.60;45.20;;;;;;5106242;27;46987;-13
2022/04/15 05:06:36;;;;;;;2.63;2.42;;;20.60;45.20;;;;;;5106721;27;46947;-22
2022/04/15 05:09:03;;;;;;;2.58;2.38;;;20.50;45.30;;;;;;5106007;27;50014;-22
2022/04/15 05:11:30;;;;;;;2.60;2.40;;;20.50;45.30;;;;;;5106260;27;47304;-22
2022/04/15 05:13:57;;;;;;;2.42;2.22;;;20.50;45.30;;;;;;5106143;27;46830;-22
2022/04/15 05:16:23;;;;;;;2.58;2.28;;;20.50;45.30;;;;;;5106444;27;46908;-14
2022/04/15 05:18:50;;;;;;;2.22;2.13;;;20.50;45.20;;;;;;5105866;27;48809;-22
2022/04/15 05:21:17;;;;;;;2.55;2.38;;;20.50;45.40;;;;;;5106561;27;46786;-14
2022/04/15 05:23:46;;;;;;;3.25;2.35;;;20.50;45.30;;;;;;5105855;27;46899;-22
2022/04/15 05:26:13;;;;;;;2.72;2.50;;;20.50;45.30;;;;;;5106116;27;46950;-13
2022/04/15 05:28:41;;;;;;;2.38;2.17;;;20.50;45.20;;;;;;5106011;27;47839;-22
2022/04/15 05:31:08;;;;;;;2.58;2.38;;;20.50;45.40;;;;;;5105918;27;47345;-12
2022/04/15 05:33:35;;;;;;;2.65;2.45;;;20.50;45.20;;;;;;5105923;27;46954;-12
2022/04/15 05:36:01;;;;;;;2.63;2.42;;;20.50;45.30;;;;;;5106330;27;47072;-22
2022/04/15 05:38:28;;;;;;;2.83;2.63;;;20.50;45.30;;;;;;5105526;27;48104;-22
2022/04/15 05:40:56;;;;;;;2.78;2.40;;;20.50;45.20;;;;;;5106851;27;47519;-13
2022/04/15 05:43:23;;;;;;;3.35;2.40;;;20.50;45.20;;;;;;5109619;27;46842;-14
2022/04/15 05:45:50;;;;;;;2.40;2.20;;;20.50;45.30;;;;;;5109635;27;47143;-12
2022/04/15 05:48:16;;;;;;;2.95;2.35;;;20.40;45.30;;;;;;5109195;27;46933;-21
2022/04/15 05:50:43;;;;;;;3.83;2.40;;;20.40;45.20;;;;;;5109328;27;47427;-22
2022/04/15 05:53:12;;;;;;;2.50;2.30;;;20.40;45.20;;;;;;5109520;27;46915;-13
2022/04/15 05:55:39;;;;;;;2.50;2.30;;;20.40;45.20;;;;;;5109558;27;47370;-22
2022/04/15 05:58:07;;;;;;;3.03;2.40;;;20.50;45.30;;;;;;5109016;27;47845;-13
2022/04/15 06:00:34;;;;;;;3.05;2.70;;;20.40;45.10;;;;;;5109071;27;46961;-13
2022/04/15 06:03:01;;;;;;;3.03;2.42;;;20.50;45.20;;;;;;5109111;27;46989;-22
2022/04/15 06:05:27;;;;;;;2.70;2.50;;;20.50;45.30;;;;;;5109162;27;47297;-13
2022/04/15 06:07:54;;;;;;;3.03;2.60;;;20.40;45.20;;;;;;5109188;27;48160;-22
2022/04/15 06:10:21;;;;;;;2.70;2.50;;;20.50;45.30;;;;;;5108958;27;46818;-13
2022/04/15 06:13:02;;;;;;;2.80;2.60;;;20.40;45.10;;;;;;5108895;27;46916;-22
2022/04/15 06:15:31;;;;;;;2.50;2.30;;;20.40;45.20;;;;;;5109027;27;47027;-13
2022/04/15 06:17:58;;;;;;;2.85;2.47;;;20.40;45.20;;;;;;5109041;27;48846;-22
2022/04/15 06:20:25;;;;;;;2.53;2.33;;;20.50;45.20;;;;;;5108505;27;46935;-12
2022/04/15 06:22:51;;;;;;;2.70;2.45;;;20.40;45.10;;;;;;5108684;27;46877;-13
2022/04/15 06:25:18;;;;;;;2.50;2.30;;;20.50;45.20;;;;;;5108906;27;47105;-12
2022/04/15 06:27:45;;;;;;;2.75;2.53;;;20.50;45.20;;;;;;5108924;27;48102;-21
2022/04/15 06:30:12;;;;;;;2.60;2.40;;;20.50;45.20;;;;;;5108647;27;46931;-21
2022/04/15 06:32:40;;;;;;;2.80;2.60;;;20.50;45.10;;;;;;5108849;27;46871;-22
2022/04/15 06:35:07;;;;;;;3.17;2.47;;;20.50;45.20;;;;;;5108757;27;47304;-22
2022/04/15 06:37:34;;;;;;;2.58;2.38;;;20.50;45.20;;;;;;5108535;27;47826;-12
2022/04/15 06:40:00;;;;;;;3.15;2.47;;;20.50;45.10;;;;;;5108227;27;46866;-22
2022/04/15 06:42:28;;;;;;;2.80;2.53;;;20.50;45.10;;;;;;5108487;27;46957;-22
2022/04/15 06:44:55;;;;;;;2.42;2.25;;;20.50;45.10;;;;;;5108478;27;46879;-12
2022/04/15 06:47:21;;;;;;;2.53;2.33;;;20.50;45.10;;;;;;5108296;27;47999;-22
2022/04/15 06:49:49;;;;;;;2.97;2.67;;;20.50;45.10;;;;;;5108484;27;46901;-12
2022/04/15 06:52:17;;;;;;;2.95;2.35;;;20.50;45.00;;;;;;5107576;27;46840;-22
2022/04/15 06:54:44;;;;;;;2.47;2.28;;;20.50;45.10;;;;;;5108114;27;47283;-22
2022/04/15 06:57:11;;;;;;;2.92;2.47;;;20.50;45.10;;;;;;5108431;27;48212;-13
2022/04/15 06:59:38;;;;;;;2.60;2.40;;;20.50;45.10;;;;;;5108468;27;46937;-21
2022/04/15 07:02:05;;;;;;;2.90;2.28;;;20.50;45.00;;;;;;5108196;27;46826;-13
2022/04/15 07:04:32;;;;;;;3.08;2.50;;;20.60;45.00;;;;;;5108347;27;47291;-22
2022/04/15 07:07:00;;;;;;;2.65;2.45;;;20.60;45.00;;;;;;5108262;27;46915;-13
2022/04/15 07:09:27;;;;;;;2.58;2.38;;;20.60;44.90;;;;;;5107803;27;46926;-22
2022/04/15 07:11:54;;;;;;;2.53;2.33;;;20.60;45.00;;;;;;5108147;27;46842;-22
2022/04/15 07:14:20;;;;;;;2.88;2.28;;;20.60;45.00;;;;;;5108009;27;46910;-22
2022/04/15 07:16:47;;;;;;;3.28;2.10;;;20.60;44.90;;;;;;5107777;27;49018;-13
2022/04/15 07:19:14;;;;;;;2.65;2.20;;;20.60;44.80;;;;;;5108005;27;47452;-13
2022/04/15 07:21:42;;;;;;;2.50;2.30;;;20.70;44.90;;;;;;5108142;27;46822;-13
2022/04/15 07:24:10;;;;;;;3.45;2.22;;;20.70;44.80;;;;;;5107723;27;47081;-13
2022/04/15 07:26:37;;;;;;;3.58;2.33;;;20.70;44.80;;;;;;5107981;27;47063;-21
2022/04/15 07:29:04;;;;;;;2.03;1.83;;;20.70;44.80;;;;;;5107821;27;47458;-22
2022/04/15 07:31:30;;;;;;;2.90;2.30;;;20.70;45.40;;;;;;5107623;27;46860;-13
2022/04/15 07:33:57;;;;;;;2.35;2.25;;;20.70;44.80;;;;;;5107881;27;46943;-13
2022/04/15 07:36:43;;;;;;;2.45;2.25;;;20.70;44.60;;;;;;5107850;27;49090;-14
2022/04/15 07:39:14;;;;;;;2.55;2.35;;;20.80;44.70;;;;;;5107778;27;46931;-13
2022/04/15 07:41:41;;;;;;;3.42;2.20;;;20.80;44.60;;;;;;5108108;27;46883;-22
2022/04/15 07:44:08;;;;;;;2.35;2.10;;;20.80;44.60;;;;;;5107845;27;47264;-22
2022/04/15 07:46:35;;;;;;;2.30;2.10;;;20.80;44.50;;;;;;5107564;27;47240;-22
2022/04/15 07:49:02;;;;;;;2.20;2.03;;;20.80;44.60;;;;;;5107294;27;47292;-13
2022/04/15 07:51:28;;;;;;;2.55;2.35;;;20.80;44.50;;;;;;5107506;27;46945;-13
2022/04/15 07:53:56;;;;;;;2.05;1.90;;;20.80;44.50;;;;;;5107512;27;46944;-22
2022/04/15 07:56:24;;;;;;;2.85;2.03;;;20.80;44.50;;;;;;5107611;27;49137;-13
2022/04/15 07:58:51;;;;;;;2.33;2.13;;;20.80;44.60;;;;;;5107236;27;47020;-12
2022/04/15 08:01:18;;;;;;;2.58;2.30;;;20.90;44.60;;;;;;5107654;27;47147;-13
2022/04/15 08:03:44;;;;;;;2.17;2.08;;;20.90;45.20;;;;;;5106882;27;47218;-13
2022/04/15 08:06:11;;;;;;;2.50;2.30;;;20.90;44.60;;;;;;5106672;27;48059;-13
2022/04/15 08:08:38;;;;;;;2.10;1.90;;;20.90;44.50;;;;;;5107118;27;46969;-13
2022/04/15 08:11:04;;;;;;;2.03;1.92;;;20.90;44.50;;;;;;5107477;27;46816;-13
2022/04/15 08:13:33;;;;;;;2.15;2.00;;;20.90;44.60;;;;;;5107140;27;47384;-13
2022/04/15 08:16:00;;;;;;;2.10;2.00;;;20.90;44.50;;;;;;5106964;27;48379;-22
2022/04/15 08:18:26;;;;;;;2.00;1.90;;;21.00;44.60;;;;;;5106891;27;47020;-22
2022/04/15 08:20:55;;;;;;;2.40;2.20;;;21.00;44.50;;;;;;5107474;27;46866;-22
2022/04/15 08:23:22;;;;;;;2.30;2.13;;;21.00;44.50;;;;;;5107271;27;46860;-22
2022/04/15 08:25:49;;;;;;;2.05;1.95;;;21.00;44.30;;;;;;5106660;27;47942;-22
2022/04/15 08:28:16;;;;;;;2.30;2.10;;;21.00;44.50;;;;;;5106812;27;46985;-13
2022/04/15 08:30:44;;;;;;;2.20;2.00;;;21.10;44.50;;;;;;5107013;27;46875;-13
2022/04/15 08:33:10;;;;;;;2.00;1.90;;;21.10;44.50;;;;;;5106984;27;46904;-13
2022/04/15 08:35:38;;;;;;;2.60;2.40;;;21.10;44.30;;;;;;5106651;27;47978;-13
2022/04/15 08:38:05;;;;;;;2.20;2.00;;;21.10;44.30;;;;;;5106522;27;47412;-13
2022/04/15 08:40:34;;;;;;;1.85;1.75;;;21.20;44.30;;;;;;5106851;27;46830;-22
2022/04/15 08:43:02;;;;;;;3.83;2.40;;;21.20;44.20;;;;;;5107168;27;46967;-13
2022/04/15 08:45:29;;;;;;;2.38;2.17;;;21.20;44.10;;;;;;5106566;27;48814;-22
2022/04/15 08:48:00;;;;;;;2.58;1.88;;;21.20;44.00;;;;;;5106455;27;46834;-22
2022/04/15 08:50:27;;;;;;;2.30;2.05;;;21.30;44.00;;;;;;5106587;27;46929;-12
2022/04/15 08:52:54;;;;;;;1.92;1.83;;;21.30;44.00;;;;;;5106888;27;47028;-13
2022/04/15 08:55:22;;;;;;;2.45;2.08;;;21.30;43.80;;;;;;5106043;27;48789;-13
2022/04/15 08:57:48;;;;;;;2.17;2.08;;;21.30;43.90;;;;;;5106267;27;47587;-22
2022/04/15 09:00:16;;;;;;;2.53;2.33;;;21.40;43.80;;;;;;5106057;27;47091;-22
2022/04/15 09:02:42;;;;;;;1.98;1.88;;;21.40;43.70;;;;;;5106862;27;47175;-22
2022/04/15 09:05:11;;;;;;;2.38;2.17;;;21.40;43.90;;;;;;5106456;27;48801;-12
2022/04/15 09:07:38;;;;;;;2.22;2.13;;;21.40;44.00;;;;;;5106413;27;46915;-22
2022/04/15 09:10:05;;;;;;;2.00;1.90;;;21.40;43.70;;;;;;5106389;27;46949;-12
2022/04/15 09:12:35;;;;;;;2.28;2.08;;;21.40;44.20;;;;;;5106596;27;47223;-13
2022/04/15 09:15:09;;;;;;;2.08;1.80;;;21.40;44.30;;;;;;5105706;27;49157;-22
2022/04/15 09:17:36;;;;;;;2.10;2.00;;;21.40;44.40;;;;;;5105966;27;47435;-22
2022/04/15 09:20:03;;;;;;;2.05;1.92;;;21.40;44.40;;;;;;5106335;27;46841;-13
2022/04/15 09:22:31;;;;;;;2.45;1.98;;;21.50;44.30;;;;;;5106179;27;46879;-22
2022/04/15 09:24:58;;;;;;;2.38;1.83;;;21.50;44.30;;;;;;5105387;27;49069;-13
2022/04/15 09:27:26;;;;;;;1.85;1.75;;;21.50;44.00;;;;;;5105976;27;47174;-22
2022/04/15 09:29:54;;;;;;;1.90;1.80;;;21.50;43.80;;;;;;5105891;27;47039;-22
2022/04/15 09:32:22;;;;;;;2.10;2.00;;;21.60;44.00;;;;;;5106161;27;46908;-22
2022/04/15 09:34:55;;;;;;;2.00;1.90;;;21.60;44.10;;;;;;5105616;27;49253;-22
2022/04/15 09:37:21;;;;;;;2.85;1.92;;;21.60;44.10;;;;;;5106048;27;46754;-21
2022/04/15 09:42:46;;;;;;;2.58;2.20;;;21.70;44.00;;;;;;5207685;27;46772;-13
2022/04/15 09:45:14;;;;;;;2.03;1.92;;;21.70;43.80;;;;;;5186040;27;46891;-21
2022/04/15 09:47:42;;;;;;;2.13;2.03;;;21.80;43.80;;;;;;5186545;27;46915;-21
2022/04/15 09:50:12;;;;;;;1.70;1.60;;;21.80;43.40;;;;;;5186062;27;47849;-13
2022/04/15 09:52:39;;;;;;;2.08;1.90;;;21.90;43.40;;;;;;5185913;27;47260;-12
2022/04/15 09:55:07;;;;;;;1.85;1.75;;;21.90;43.20;;;;;;5186204;27;46885;-22
2022/04/15 09:57:34;;;;;;;1.80;1.70;;;22.00;43.20;;;;;;5185944;27;46894;-13
2022/04/15 10:00:04;;;;;;;2.13;1.95;;;22.00;43.30;;;;;;5185773;27;49074;-21
2022/04/15 10:02:31;;;;;;;2.40;1.98;;;22.10;43.50;;;;;;5185661;27;46870;-13
2022/04/15 10:04:57;;;;;;;1.90;1.80;;;22.10;43.40;;;;;;5185943;27;46839;-21
2022/04/15 10:07:24;;;;;;;1.88;1.77;;;22.10;43.40;;;;;;5186006;27;46909;-12
2022/04/15 10:09:51;;;;;;;2.03;1.83;;;22.20;43.50;;;;;;5186001;27;48071;-13
2022/04/15 10:12:18;;;;;;;2.00;1.90;;;22.20;43.50;;;;;;5186011;27;47523;-12
2022/04/15 10:14:44;;;;;;;1.80;1.70;;;22.20;43.30;;;;;;5185918;27;47000;-22
2022/04/15 10:17:15;;;;;;;2.15;2.05;;;22.30;43.30;;;;;;5186022;27;47218;-21
2022/04/15 10:19:42;;;;;;;2.20;2.00;;;22.30;43.20;;;;;;5185511;27;49028;-21
2022/04/15 10:22:09;;;;;;;1.98;1.88;;;22.40;43.20;;;;;;5185178;27;46820;-12
2022/04/15 10:24:36;;;;;;;1.80;1.70;;;22.40;43.10;;;;;;5185580;27;46905;-12
2022/04/15 10:27:02;;;;;;;1.73;1.63;;;22.50;43.10;;;;;;5184591;27;46979;-12
2022/04/15 10:29:29;;;;;;;2.03;1.80;;;22.50;43.00;;;;;;5184857;27;46933;-12
2022/04/15 10:31:56;;;;;;;1.92;1.83;;;22.60;43.00;;;;;;5185473;27;47380;-22
2022/04/15 10:34:24;;;;;;;2.42;2.05;;;22.60;43.00;;;;;;5176883;27;46922;-13
2022/04/15 10:36:51;;;;;;;1.70;1.60;;;22.70;43.10;;;;;;5175153;27;47043;-13
2022/04/15 10:39:19;;;;;;;2.33;2.00;;;22.70;43.50;;;;;;5170214;27;47061;-12
2022/04/15 10:41:53;;;;;;;2.25;1.85;;;22.80;43.30;;;;;;5162449;27;47168;-13
2022/04/15 10:44:27;;;;;;;2.25;2.05;;;22.80;43.20;;;;;;5164488;27;47069;-17
2022/04/15 10:46:56;;;;;;;2.20;2.00;;;22.90;43.20;;;;;;5164218;27;47243;-21
2022/04/15 10:49:26;;;;;;;4.22;1.92;;;23.00;43.20;;;;;;5168561;27;47815;-21
2022/04/15 10:51:54;;;;;;;1.90;1.80;;;23.10;43.10;;;;;;5183508;27;47228;-23
2022/04/15 10:54:41;;;;;;;1.88;1.77;;;23.20;42.90;;;;;;5170474;27;46886;-13
2022/04/15 10:57:11;;;;;;;1.90;1.80;;;23.20;42.60;;;;;;5171385;27;46834;-21
2022/04/15 11:02:24;;;;;;;2.13;2.03;;;23.30;42.30;;;;;;5170586;27;46933;-21
2022/04/15 11:04:53;;;;;;;2.17;1.98;;;23.30;42.20;;;;;;5170949;27;46891;-13
2022/04/15 11:07:26;;;;;;;2.70;2.15;;;23.40;42.00;;;;;;5170941;27;47275;-13
2022/04/15 11:09:52;;;;;;;2.35;2.15;;;23.50;41.90;;;;;;5170517;27;49126;-21
2022/04/15 11:12:29;;;;;;;2.65;2.03;;;23.60;42.10;;;;;;5170771;27;46934;-22
2022/04/15 11:14:56;;;;;;;2.17;2.05;;;23.60;41.70;;;;;;5170946;27;46883;-21
2022/04/15 11:17:37;;;;;;;2.10;2.00;;;23.70;41.70;;;;;;5170869;27;47266;-21
2022/04/15 11:20:07;;;;;;;1.98;1.85;;;23.80;41.60;;;;;;5170591;27;48306;-12
2022/04/15 11:22:37;;;;;;;2.22;2.10;;;23.80;41.30;;;;;;5170650;27;46808;-23
2022/04/15 11:25:04;;;;;;;1.98;1.88;;;23.90;41.20;;;;;;5171374;27;46887;-13
2022/04/15 11:27:31;;;;;;;2.30;2.05;;;24.00;41.10;;;;;;5170884;27;47231;-21
2022/04/15 11:29:57;;;;;;;2.22;1.98;;;24.00;41.00;;;;;;5170343;27;47924;-13
2022/04/15 11:32:24;;;;;;;3.15;2.83;;;24.10;40.70;;;;;;5170311;27;47189;-13
2022/04/15 11:34:55;;;;;;;2.40;2.15;;;24.10;40.60;;;;;;5170528;27;46982;-14
2022/04/15 11:37:24;;;;;;;2.90;2.50;;;24.20;40.50;;;;;;5170036;27;47191;-22
2022/04/15 11:39:50;;;;;;;3.13;2.28;;;24.20;40.50;;;;;;5170060;27;46938;-13
2022/04/15 11:42:17;;;;;;;2.97;2.22;;;24.30;40.40;;;;;;5170118;27;47132;-22
2022/04/15 11:44:44;;;;;;;2.45;1.75;;;24.40;40.30;;;;;;5170353;27;47006;-22
2022/04/15 11:47:19;;;;;;;2.20;2.10;;;24.40;40.30;;;;;;5170379;27;47101;-22
2022/04/15 11:49:45;;;;;;;2.22;2.03;;;24.50;40.10;;;;;;5170171;27;49213;-22
2022/04/15 11:52:19;;;;;;;2.05;1.80;;;24.50;40.00;;;;;;5169636;27;46993;-13
2022/04/15 11:54:48;;;;;;;1.88;1.77;;;24.60;40.00;;;;;;5170305;27;46945;-13
2022/04/15 11:57:14;;;;;;;2.20;1.75;;;24.60;39.80;;;;;;5170356;27;46929;-23
2022/04/15 11:59:42;;;;;;;2.75;2.15;;;24.70;39.90;;;;;;5169955;27;48115;-14
2022/04/15 12:02:09;;;;;;;2.00;1.90;;;24.70;39.60;;;;;;5169739;27;46956;-22
2022/04/15 12:04:36;;;;;;;2.55;2.13;;;24.80;39.60;;;;;;5168904;27;46795;-13
2022/04/15 12:07:03;;;;;;;2.08;1.75;;;24.80;39.50;;;;;;5169939;27;46906;-13
2022/04/15 12:09:30;;;;;;;1.90;1.75;;;24.80;39.40;;;;;;5169921;27;47084;-22
2022/04/15 12:11:58;;;;;;;2.35;2.17;;;24.80;39.40;;;;;;5169624;27;46908;-22
2022/04/15 12:14:36;;;;;;;2.30;2.10;;;24.90;39.30;;;;;;5169832;27;46815;-13
2022/04/15 12:17:04;;;;;;;2.05;1.95;;;24.90;39.20;;;;;;5169761;27;47210;-23
2022/04/15 12:19:30;;;;;;;2.25;2.13;;;25.00;39.30;;;;;;5170259;27;48959;-14
2022/04/15 12:22:00;;;;;;;2.50;2.30;;;25.00;39.60;;;;;;5169773;27;47268;-13
2022/04/15 12:24:30;;;;;;;4.38;2.20;;;25.00;39.00;;;;;;5167398;27;46824;-14
2022/04/15 12:27:00;;;;;;;2.15;2.05;;;25.10;38.90;;;;;;5165809;27;46934;-22
2022/04/15 12:32:23;;;;;;;2.83;2.63;;;25.20;38.80;;;;;;5072657;28;47290;-13
2022/04/15 12:34:50;;;;;;;2.15;1.95;;;25.20;38.70;;;;;;5149197;27;47184;-14
2022/04/15 12:37:37;;;;;;;2.85;2.00;;;25.20;38.60;;;;;;5169578;27;46918;-14
2022/04/15 12:40:06;;;;;;;2.10;1.90;;;25.30;38.50;;;;;;5169066;27;47067;-14
2022/04/15 12:42:34;;;;;;;2.15;1.90;;;25.30;38.50;;;;;;5168678;27;46841;-13
2022/04/15 12:45:03;;;;;;;1.98;1.77;;;25.40;38.40;;;;;;5169129;27;46918;-13
2022/04/15 12:47:30;;;;;;;3.92;1.90;;;25.40;38.30;;;;;;5169181;27;46832;-22
2022/04/15 12:50:19;;;;;;;1.92;1.83;;;25.40;38.20;;;;;;5169406;27;49006;-14
2022/04/15 12:52:46;;;;;;;2.13;2.03;;;25.50;38.20;;;;;;5169258;27;46958;-22
2022/04/15 12:55:12;;;;;;;1.80;1.70;;;25.50;38.10;;;;;;5168698;27;47043;-22
2022/04/15 12:57:41;;;;;;;2.20;2.00;;;25.60;38.10;;;;;;5169504;27;47183;-14
2022/04/15 13:00:10;;;;;;;2.10;1.90;;;25.60;37.90;;;;;;5168763;27;47958;-22